Yoho Park AWS, British Columbia

11:40 AM MST on February 26, 2017 (GMT -0700)
SkiLouise Primary Pumphouse | | Change Station

Elev 5128 ft 51.43 °N, 116.17 °W | Updated 1 minute ago

Overcast
Overcast
17.9 °F
Feels Like 18 °F
N
2.0
Wind Variable Wind from South
Gusts 5.0 mph

Today
High -- | Low -- °F
--% Chance of Precip.
Yesterday
High -- | Low -- °F
Precip. -- in
Pressure 29.96 in
Visibility 20.0 miles
Clouds Few 1200 ft
Few 2200 ft
Few 5500 ft
Scattered Clouds 9000 ft
Overcast 20000 ft
Windchill 18 °F
Dew Point 1 °F
Humidity 47%
Rainfall 0.00 in
Snow Depth Not available.
7:35 AM 6:21 PM
New Moon, 0% visible
METAR CYGE 261800Z 32006KT 20SM FEW012 FEW022 FEW055 SCT090 OVC200 M06/M10 A2982 RMK SC1SC1CU1AS4CS4 SC TR SC TR CU TR HALO SLP143
Pressure 29.96 in
Visibility 20.0 miles
Clouds Few 1200 ft
Few 2200 ft
Few 5500 ft
Scattered Clouds 9000 ft
Overcast 20000 ft
Windchill 18 °F
Dew Point 1 °F
Humidity 47%
Rainfall 0.00 in
Snow Depth Not available.
7:35 AM 6:21 PM
New Moon, 0% visible
METAR CYGE 261800Z 32006KT 20SM FEW012 FEW022 FEW055 SCT090 OVC200 M06/M10 A2982 RMK SC1SC1CU1AS4CS4 SC TR SC TR CU TR HALO SLP143

Get Your Daily Forecast Email!

Thanks for signing up!

Be on the lookout for a verification email in your inbox.

You'll start receiving the daily forecast at 8 AM.

×

10-Day Weather Forecast

Almanac

Astronomy

Feb. 26, 2017 Rise Set
Actual Time
Civil Twilight
Nautical Twilight
Astronomical Twilight
Moon
Length of Visible Light
Length of Day
Tomorrow will be .
, % of the Moon is Illuminated

Today's Extremes

Country Highs Country Lows

Community

WunderPhotos

Upload Photos

1,962,540 photos uploaded!

WunderBlog® & News

Nearby

Air Quality

  Air Quality AQ Index Pollutant
Not available.

Snow Depth

Station Depth Elevation

Earthquake Activity

City Distance Mag. Time & Date
Minimum magnitude displayed is 2.5.

Coastal Water Temperatures

Place Temperature

Stations

Nearby Weather Stations

Station Location Temp. Windchill Dew Point Humidity Wind Precip. Elev Updated Type
                   

Watches & Warnings

There are currently no watches in effect.